sensor_id;sensor_type;location;lat;lon;timestamp;pressure;altitude;pressure_sealevel;temperature;humidity
56737;BME280;42618;51.226;4.910;2022-08-01T00:00:06;49487.78;;;-146.94;90.23
56737;BME280;42618;51.226;4.910;2022-08-01T00:02:38;49511.72;;;-146.94;90.65
56737;BME280;42618;51.226;4.910;2022-08-01T00:05:07;49471.84;;;-146.94;90.31
56737;BME280;42618;51.226;4.910;2022-08-01T00:07:34;49457.88;;;-146.94;90.05
56737;BME280;42618;51.226;4.910;2022-08-01T00:10:03;49487.78;;;-146.94;89.65
56737;BME280;42618;51.226;4.910;2022-08-01T00:12:30;49507.72;;;-146.94;89.68
56737;BME280;42618;51.226;4.910;2022-08-01T00:14:56;49503.72;;;-146.94;89.66
56737;BME280;42618;51.226;4.910;2022-08-01T00:17:23;49495.75;;;-146.94;89.40
56737;BME280;42618;51.226;4.910;2022-08-01T00:19:50;49525.66;;;-146.94;89.04
56737;BME280;42618;51.226;4.910;2022-08-01T00:22:16;49495.75;;;-146.94;89.45
56737;BME280;42618;51.226;4.910;2022-08-01T00:24:43;49473.84;;;-146.94;89.36
56737;BME280;42618;51.226;4.910;2022-08-01T00:27:10;49475.81;;;-146.94;89.33
56737;BME280;42618;51.226;4.910;2022-08-01T00:29:36;49483.81;;;-146.94;89.58
56737;BME280;42618;51.226;4.910;2022-08-01T00:32:23;49469.84;;;-146.94;88.90
56737;BME280;42618;51.226;4.910;2022-08-01T00:34:50;49475.81;;;-146.94;89.20
56737;BME280;42618;51.226;4.910;2022-08-01T00:37:17;49495.75;;;-146.94;89.29
56737;BME280;42618;51.226;4.910;2022-08-01T00:39:44;49495.75;;;-146.94;89.41
56737;BME280;42618;51.226;4.910;2022-08-01T00:42:11;49527.66;;;-146.94;89.59
56737;BME280;42618;51.226;4.910;2022-08-01T00:44:39;49491.78;;;-146.94;89.16
56737;BME280;42618;51.226;4.910;2022-08-01T00:47:08;49491.78;;;-146.94;89.24
56737;BME280;42618;51.226;4.910;2022-08-01T00:49:35;49475.81;;;-146.94;89.41
56737;BME280;42618;51.226;4.910;2022-08-01T00:52:03;49515.69;;;-146.94;89.61
56737;BME280;42618;51.226;4.910;2022-08-01T00:54:32;49453.91;;;-146.94;89.56
56737;BME280;42618;51.226;4.910;2022-08-01T00:56:59;49483.81;;;-146.94;89.89
56737;BME280;42618;51.226;4.910;2022-08-01T00:59:26;49471.84;;;-146.94;89.89
56737;BME280;42618;51.226;4.910;2022-08-01T01:01:53;49489.78;;;-146.94;89.89
56737;BME280;42618;51.226;4.910;2022-08-01T01:04:21;49505.72;;;-146.94;90.00
56737;BME280;42618;51.226;4.910;2022-08-01T01:12:29;49507.72;;;-146.94;89.93
56737;BME280;42618;51.226;4.910;2022-08-01T01:15:20;49507.72;;;-146.94;89.88
56737;BME280;42618;51.226;4.910;2022-08-01T01:17:53;49483.81;;;-146.94;89.90
56737;BME280;42618;51.226;4.910;2022-08-01T01:20:26;49463.88;;;-146.94;89.64
56737;BME280;42618;51.226;4.910;2022-08-01T01:26:26;49499.75;;;-146.94;89.05
56737;BME280;42618;51.226;4.910;2022-08-01T01:29:14;49527.66;;;-146.94;88.73
56737;BME280;42618;51.226;4.910;2022-08-01T01:31:47;49479.81;;;-146.94;88.30
56737;BME280;42618;51.226;4.910;2022-08-01T01:34:16;49485.78;;;-146.94;88.64
56737;BME280;42618;51.226;4.910;2022-08-01T01:36:45;49491.78;;;-146.94;89.10
56737;BME280;42618;51.226;4.910;2022-08-01T01:39:15;49527.66;;;-146.94;89.29
56737;BME280;42618;51.226;4.910;2022-08-01T01:41:44;49495.75;;;-146.94;89.30
56737;BME280;42618;51.226;4.910;2022-08-01T01:44:13;49455.88;;;-146.94;89.29
56737;BME280;42618;51.226;4.910;2022-08-01T01:46:40;49497.75;;;-146.94;89.08
56737;BME280;42618;51.226;4.910;2022-08-01T01:49:08;49507.72;;;-146.94;89.71
56737;BME280;42618;51.226;4.910;2022-08-01T01:51:38;49469.84;;;-146.94;90.09
56737;BME280;42618;51.226;4.910;2022-08-01T01:54:08;49515.69;;;-146.94;90.17
56737;BME280;42618;51.226;4.910;2022-08-01T01:56:37;49531.63;;;-146.94;90.11
56737;BME280;42618;51.226;4.910;2022-08-01T01:59:19;49519.69;;;-146.94;90.93
56737;BME280;42618;51.226;4.910;2022-08-01T02:01:52;49511.72;;;-146.94;91.00
56737;BME280;42618;51.226;4.910;2022-08-01T02:04:41;49489.78;;;-146.94;92.19
56737;BME280;42618;51.226;4.910;2022-08-01T02:07:10;49487.78;;;-146.94;93.49
56737;BME280;42618;51.226;4.910;2022-08-01T02:09:40;49483.81;;;-146.94;94.04
56737;BME280;42618;51.226;4.910;2022-08-01T02:12:10;49521.69;;;-146.94;93.81
56737;BME280;42618;51.226;4.910;2022-08-01T02:14:39;49545.59;;;-146.94;94.40
56737;BME280;42618;51.226;4.910;2022-08-01T02:17:06;49495.75;;;-146.94;94.90
56737;BME280;42618;51.226;4.910;2022-08-01T02:19:35;49475.81;;;-146.94;95.61
56737;BME280;42618;51.226;4.910;2022-08-01T02:22:14;49497.75;;;-146.94;95.74
56737;BME280;42618;51.226;4.910;2022-08-01T02:24:49;49523.66;;;-146.94;97.08
56737;BME280;42618;51.226;4.910;2022-08-01T02:27:22;49493.75;;;-146.94;97.11
56737;BME280;42618;51.226;4.910;2022-08-01T02:29:59;49503.72;;;-146.94;97.38
56737;BME280;42618;51.226;4.910;2022-08-01T02:32:31;49491.78;;;-146.94;97.49
56737;BME280;42618;51.226;4.910;2022-08-01T02:35:00;49525.66;;;-146.94;98.50
56737;BME280;42618;51.226;4.910;2022-08-01T02:37:31;49509.72;;;-146.94;98.30
56737;BME280;42618;51.226;4.910;2022-08-01T02:40:00;49485.78;;;-146.94;98.76
56737;BME280;42618;51.226;4.910;2022-08-01T02:42:28;49535.63;;;-146.94;99.08
56737;BME280;42618;51.226;4.910;2022-08-01T02:44:56;49519.69;;;-146.94;100.00
56737;BME280;42618;51.226;4.910;2022-08-01T02:47:25;49541.59;;;-146.94;100.00
56737;BME280;42618;51.226;4.910;2022-08-01T02:49:54;49497.75;;;-146.94;100.00
56737;BME280;42618;51.226;4.910;2022-08-01T02:52:23;49531.63;;;-146.94;100.00
56737;BME280;42618;51.226;4.910;2022-08-01T02:54:53;49507.72;;;-146.94;100.00
56737;BME280;42618;51.226;4.910;2022-08-01T02:57:21;49491.78;;;-146.94;100.00
56737;BME280;42618;51.226;4.910;2022-08-01T02:59:58;49485.78;;;-146.94;100.00
56737;BME280;42618;51.226;4.910;2022-08-01T03:02:27;49493.75;;;-146.94;100.00
56737;BME280;42618;51.226;4.910;2022-08-01T03:04:55;49515.69;;;-146.94;100.00
56737;BME280;42618;51.226;4.910;2022-08-01T03:07:23;49507.72;;;-146.94;100.00
56737;BME280;42618;51.226;4.910;2022-08-01T03:10:00;49531.63;;;-146.94;100.00
56737;BME280;42618;51.226;4.910;2022-08-01T03:12:30;49517.69;;;-146.94;100.00
56737;BME280;42618;51.226;4.910;2022-08-01T03:15:00;49543.59;;;-146.94;100.00
56737;BME280;42618;51.226;4.910;2022-08-01T03:17:29;49499.75;;;-146.94;100.00
56737;BME280;42618;51.226;4.910;2022-08-01T03:19:58;49523.66;;;-146.94;100.00
56737;BME280;42618;51.226;4.910;2022-08-01T03:22:27;49547.59;;;-146.94;100.00
56737;BME280;42618;51.226;4.910;2022-08-01T03:24:56;49483.81;;;-146.94;100.00
56737;BME280;42618;51.226;4.910;2022-08-01T03:27:25;49499.75;;;-146.94;100.00
56737;BME280;42618;51.226;4.910;2022-08-01T03:29:55;49487.78;;;-146.94;100.00
56737;BME280;42618;51.226;4.910;2022-08-01T03:32:23;49503.72;;;-146.94;100.00
56737;BME280;42618;51.226;4.910;2022-08-01T03:34:51;49551.56;;;-146.94;100.00
56737;BME280;42618;51.226;4.910;2022-08-01T03:37:27;49519.69;;;-146.94;100.00
56737;BME280;42618;51.226;4.910;2022-08-01T03:40:13;49523.66;;;-146.94;100.00
56737;BME280;42618;51.226;4.910;2022-08-01T03:42:48;49511.72;;;-146.94;100.00
56737;BME280;42618;51.226;4.910;2022-08-01T03:45:21;49549.59;;;-146.94;100.00
56737;BME280;42618;51.226;4.910;2022-08-01T03:47:52;49535.63;;;-146.94;100.00
56737;BME280;42618;51.226;4.910;2022-08-01T03:50:23;49557.56;;;-146.94;100.00
56737;BME280;42618;51.226;4.910;2022-08-01T03:52:53;49519.69;;;-146.94;99.94
56737;BME280;42618;51.226;4.910;2022-08-01T03:55:21;49511.72;;;-146.94;100.00
56737;BME280;42618;51.226;4.910;2022-08-01T03:57:48;49529.66;;;-146.94;100.00
56737;BME280;42618;51.226;4.910;2022-08-01T04:00:17;49555.56;;;-146.94;100.00
56737;BME280;42618;51.226;4.910;2022-08-01T04:02:48;49545.59;;;-146.94;100.00
56737;BME280;42618;51.226;4.910;2022-08-01T04:05:16;49545.59;;;-146.94;100.00
56737;BME280;42618;51.226;4.910;2022-08-01T04:07:47;49545.59;;;-146.94;100.00
56737;BME280;42618;51.226;4.910;2022-08-01T04:10:16;49557.56;;;-146.94;100.00
56737;BME280;42618;51.226;4.910;2022-08-01T04:12:43;49473.84;;;-146.94;100.00
56737;BME280;42618;51.226;4.910;2022-08-01T04:15:10;49523.66;;;-146.94;100.00
56737;BME280;42618;51.226;4.910;2022-08-01T04:17:36;49495.75;;;-146.94;100.00
56737;BME280;42618;51.226;4.910;2022-08-01T04:20:03;49507.72;;;-146.94;100.00
56737;BME280;42618;51.226;4.910;2022-08-01T04:22:30;49515.69;;;-146.94;99.79
56737;BME280;42618;51.226;4.910;2022-08-01T04:25:07;49537.63;;;-146.94;100.00
56737;BME280;42618;51.226;4.910;2022-08-01T04:27:38;49571.50;;;-146.94;99.54
56737;BME280;42618;51.226;4.910;2022-08-01T04:30:27;49517.69;;;-146.94;99.29
56737;BME280;42618;51.226;4.910;2022-08-01T04:32:59;49559.56;;;-146.94;99.24
56737;BME280;42618;51.226;4.910;2022-08-01T04:35:27;49511.72;;;-146.94;99.69
56737;BME280;42618;51.226;4.910;2022-08-01T04:38:19;49539.63;;;-146.94;99.93
56737;BME280;42618;51.226;4.910;2022-08-01T04:40:50;49531.63;;;-146.94;100.00
56737;BME280;42618;51.226;4.910;2022-08-01T04:43:18;49545.59;;;-146.94;100.00
56737;BME280;42618;51.226;4.910;2022-08-01T04:45:46;49497.75;;;-146.94;100.00
56737;BME280;42618;51.226;4.910;2022-08-01T04:48:15;49527.66;;;-146.94;100.00
56737;BME280;42618;51.226;4.910;2022-08-01T04:50:43;49555.56;;;-146.94;100.00
56737;BME280;42618;51.226;4.910;2022-08-01T04:53:13;49549.59;;;-146.94;99.99
56737;BME280;42618;51.226;4.910;2022-08-01T04:55:40;49521.69;;;-146.94;99.73
56737;BME280;42618;51.226;4.910;2022-08-01T04:58:09;49541.59;;;-146.94;99.37
56737;BME280;42618;51.226;4.910;2022-08-01T05:00:41;49567.53;;;-146.94;99.49
56737;BME280;42618;51.226;4.910;2022-08-01T05:03:08;49547.59;;;-146.94;100.00
56737;BME280;42618;51.226;4.910;2022-08-01T05:05:35;49537.63;;;-146.94;99.25
56737;BME280;42618;51.226;4.910;2022-08-01T05:08:02;49499.75;;;-146.94;100.00
56737;BME280;42618;51.226;4.910;2022-08-01T05:10:28;49527.66;;;-146.94;98.38
56737;BME280;42618;51.226;4.910;2022-08-01T05:12:55;49545.59;;;-146.94;97.31
56737;BME280;42618;51.226;4.910;2022-08-01T05:15:22;49525.66;;;-146.94;96.31
56737;BME280;42618;51.226;4.910;2022-08-01T05:17:48;49539.63;;;-146.94;96.58
56737;BME280;42618;51.226;4.910;2022-08-01T05:20:15;49527.66;;;-146.94;95.89
56737;BME280;42618;51.226;4.910;2022-08-01T05:22:42;49523.66;;;-146.94;95.36
56737;BME280;42618;51.226;4.910;2022-08-01T05:25:09;49531.63;;;-146.94;95.77
56737;BME280;42618;51.226;4.910;2022-08-01T05:27:38;49537.63;;;-146.94;95.92
56737;BME280;42618;51.226;4.910;2022-08-01T05:30:08;49491.78;;;-146.94;95.74
56737;BME280;42618;51.226;4.910;2022-08-01T05:32:36;49551.56;;;-146.94;95.47
56737;BME280;42618;51.226;4.910;2022-08-01T05:35:03;49511.72;;;-146.94;94.82
56737;BME280;42618;51.226;4.910;2022-08-01T05:37:30;49551.56;;;-146.94;94.88
56737;BME280;42618;51.226;4.910;2022-08-01T05:39:57;49489.78;;;-146.94;95.11
56737;BME280;42618;51.226;4.910;2022-08-01T05:42:23;49551.56;;;-146.94;95.09
56737;BME280;42618;51.226;4.910;2022-08-01T05:44:50;49547.59;;;-146.94;95.59
56737;BME280;42618;51.226;4.910;2022-08-01T05:47:18;49547.59;;;-146.94;94.87
56737;BME280;42618;51.226;4.910;2022-08-01T05:49:45;49515.69;;;-146.94;94.60
56737;BME280;42618;51.226;4.910;2022-08-01T05:52:12;49529.66;;;-146.94;94.47
56737;BME280;42618;51.226;4.910;2022-08-01T05:54:39;49491.78;;;-146.94;94.14
56737;BME280;42618;51.226;4.910;2022-08-01T05:57:06;49523.66;;;-146.94;92.73
56737;BME280;42618;51.226;4.910;2022-08-01T05:59:33;49505.72;;;-146.94;92.83
56737;BME280;42618;51.226;4.910;2022-08-01T06:01:59;49519.69;;;-146.94;91.96
56737;BME280;42618;51.226;4.910;2022-08-01T06:04:26;49503.72;;;-146.94;91.70
56737;BME280;42618;51.226;4.910;2022-08-01T06:06:53;49539.63;;;-146.94;92.06
56737;BME280;42618;51.226;4.910;2022-08-01T06:09:20;49507.72;;;-146.94;91.73
56737;BME280;42618;51.226;4.910;2022-08-01T06:11:46;49513.69;;;-146.94;91.14
56737;BME280;42618;51.226;4.910;2022-08-01T06:14:13;49477.81;;;-146.94;91.17
56737;BME280;42618;51.226;4.910;2022-08-01T06:16:40;49535.63;;;-146.94;90.80
56737;BME280;42618;51.226;4.910;2022-08-01T06:19:06;49511.72;;;-146.94;90.99
56737;BME280;42618;51.226;4.910;2022-08-01T06:21:33;49497.75;;;-146.94;91.03
56737;BME280;42618;51.226;4.910;2022-08-01T06:24:00;49483.81;;;-146.94;90.00
56737;BME280;42618;51.226;4.910;2022-08-01T06:26:26;49533.63;;;-146.94;89.85
56737;BME280;42618;51.226;4.910;2022-08-01T06:28:53;49515.69;;;-146.94;90.10
56737;BME280;42618;51.226;4.910;2022-08-01T06:31:20;49503.72;;;-146.94;90.03
56737;BME280;42618;51.226;4.910;2022-08-01T06:33:46;49511.72;;;-146.94;89.30
56737;BME280;42618;51.226;4.910;2022-08-01T06:36:13;49493.75;;;-146.94;88.07
56737;BME280;42618;51.226;4.910;2022-08-01T06:38:40;49497.75;;;-146.94;88.93
56737;BME280;42618;51.226;4.910;2022-08-01T06:41:06;49529.66;;;-146.94;87.76
56737;BME280;42618;51.226;4.910;2022-08-01T06:43:33;49489.78;;;-146.94;88.06
56737;BME280;42618;51.226;4.910;2022-08-01T06:46:00;49521.69;;;-146.94;87.02
56737;BME280;42618;51.226;4.910;2022-08-01T06:48:27;49499.75;;;-146.94;86.21
56737;BME280;42618;51.226;4.910;2022-08-01T06:50:53;49497.75;;;-146.94;84.31
56737;BME280;42618;51.226;4.910;2022-08-01T06:53:37;49491.78;;;-146.94;84.73
56737;BME280;42618;51.226;4.910;2022-08-01T06:56:05;49503.72;;;-146.94;83.87
56737;BME280;42618;51.226;4.910;2022-08-01T06:58:32;49473.84;;;-146.94;83.79
56737;BME280;42618;51.226;4.910;2022-08-01T07:01:02;49499.75;;;-146.94;83.71
56737;BME280;42618;51.226;4.910;2022-08-01T07:03:33;49523.66;;;-146.94;83.12
56737;BME280;42618;51.226;4.910;2022-08-01T07:06:19;49465.84;;;-146.94;82.80
56737;BME280;42618;51.226;4.910;2022-08-01T07:08:46;49499.75;;;-146.94;83.29
56737;BME280;42618;51.226;4.910;2022-08-01T07:11:13;49517.69;;;-146.94;82.30
56737;BME280;42618;51.226;4.910;2022-08-01T07:13:39;49459.88;;;-146.94;81.48
56737;BME280;42618;51.226;4.910;2022-08-01T07:16:12;49523.66;;;-146.94;80.08
56737;BME280;42618;51.226;4.910;2022-08-01T07:18:39;49495.75;;;-146.94;79.83
56737;BME280;42618;51.226;4.910;2022-08-01T07:21:06;49467.84;;;-146.94;80.29
56737;BME280;42618;51.226;4.910;2022-08-01T07:23:53;49491.78;;;-146.94;80.59
56737;BME280;42618;51.226;4.910;2022-08-01T07:26:21;49507.72;;;-146.94;79.41
56737;BME280;42618;51.226;4.910;2022-08-01T07:28:48;49475.81;;;-146.94;78.63
56737;BME280;42618;51.226;4.910;2022-08-01T07:31:15;49461.88;;;-146.94;77.26
56737;BME280;42618;51.226;4.910;2022-08-01T07:33:41;49451.91;;;-146.94;78.36
56737;BME280;42618;51.226;4.910;2022-08-01T07:36:15;49463.88;;;-146.94;77.25
56737;BME280;42618;51.226;4.910;2022-08-01T07:38:43;49491.78;;;-146.94;77.60
56737;BME280;42618;51.226;4.910;2022-08-01T07:41:10;49457.88;;;-146.94;76.01
56737;BME280;42618;51.226;4.910;2022-08-01T07:43:37;49487.78;;;-146.94;77.22
56737;BME280;42618;51.226;4.910;2022-08-01T07:46:04;49503.72;;;-146.94;76.58
56737;BME280;42618;51.226;4.910;2022-08-01T07:48:31;49491.78;;;-146.94;76.05
56737;BME280;42618;51.226;4.910;2022-08-01T07:50:58;49495.75;;;-146.94;75.15
56737;BME280;42618;51.226;4.910;2022-08-01T07:53:25;49529.66;;;-146.94;75.93
56737;BME280;42618;51.226;4.910;2022-08-01T07:55:52;49513.69;;;-146.94;74.58
56737;BME280;42618;51.226;4.910;2022-08-01T07:58:18;49467.84;;;-146.94;75.20
56737;BME280;42618;51.226;4.910;2022-08-01T08:00:45;49493.75;;;-146.94;74.59
56737;BME280;42618;51.226;4.910;2022-08-01T08:03:12;49505.72;;;-146.94;74.61
56737;BME280;42618;51.226;4.910;2022-08-01T08:05:38;49479.81;;;-146.94;73.95
56737;BME280;42618;51.226;4.910;2022-08-01T08:08:25;49473.84;;;-146.94;72.37
56737;BME280;42618;51.226;4.910;2022-08-01T08:10:52;49485.78;;;-146.94;72.05
56737;BME280;42618;51.226;4.910;2022-08-01T08:13:20;49455.88;;;-146.94;71.99
56737;BME280;42618;51.226;4.910;2022-08-01T08:15:47;49451.91;;;-146.94;69.97
56737;BME280;42618;51.226;4.910;2022-08-01T08:18:15;49483.81;;;-146.94;70.07
56737;BME280;42618;51.226;4.910;2022-08-01T08:20:41;49477.81;;;-146.94;70.29
56737;BME280;42618;51.226;4.910;2022-08-01T08:23:09;49465.84;;;-146.94;70.73
56737;BME280;42618;51.226;4.910;2022-08-01T08:26:09;49437.94;;;-146.94;67.62
56737;BME280;42618;51.226;4.910;2022-08-01T08:28:36;49461.88;;;-146.94;66.00
56737;BME280;42618;51.226;4.910;2022-08-01T08:31:03;49412.03;;;-146.94;65.79
56737;BME280;42618;51.226;4.910;2022-08-01T08:33:29;49441.94;;;-146.94;65.40
56737;BME280;42618;51.226;4.910;2022-08-01T08:35:56;49453.91;;;-146.94;65.30
56737;BME280;42618;51.226;4.910;2022-08-01T08:38:23;49441.94;;;-146.94;64.02
56737;BME280;42618;51.226;4.910;2022-08-01T08:40:56;49467.84;;;-146.94;65.12
56737;BME280;42618;51.226;4.910;2022-08-01T08:43:24;49455.88;;;-146.94;64.20
56737;BME280;42618;51.226;4.910;2022-08-01T08:45:52;49418.00;;;-146.94;64.92
56737;BME280;42618;51.226;4.910;2022-08-01T08:48:26;49400.06;;;-146.94;64.48
56737;BME280;42618;51.226;4.910;2022-08-01T08:50:53;49431.97;;;-146.94;61.69
56737;BME280;42618;51.226;4.910;2022-08-01T08:53:22;49382.13;;;-146.94;62.07
56737;BME280;42618;51.226;4.910;2022-08-01T08:55:49;49427.97;;;-146.94;62.78
56737;BME280;42618;51.226;4.910;2022-08-01T08:58:25;49453.91;;;-146.94;61.61
56737;BME280;42618;51.226;4.910;2022-08-01T09:00:57;49416.03;;;-146.94;60.80
56737;BME280;42618;51.226;4.910;2022-08-01T09:03:24;49427.97;;;-146.94;60.85
56737;BME280;42618;51.226;4.910;2022-08-01T09:05:51;49433.97;;;-146.94;59.93
56737;BME280;42618;51.226;4.910;2022-08-01T09:08:18;49431.97;;;-146.94;59.58
56737;BME280;42618;51.226;4.910;2022-08-01T09:10:45;49447.91;;;-146.94;58.22
56737;BME280;42618;51.226;4.910;2022-08-01T09:13:13;49431.97;;;-146.94;58.38
56737;BME280;42618;51.226;4.910;2022-08-01T09:15:48;49435.97;;;-146.94;58.24
56737;BME280;42618;51.226;4.910;2022-08-01T09:21:17;49400.06;;;-146.94;56.55
56737;BME280;42618;51.226;4.910;2022-08-01T09:23:49;49410.03;;;-146.94;57.68
56737;BME280;42618;51.226;4.910;2022-08-01T09:26:32;49453.91;;;-146.94;56.48
56737;BME280;42618;51.226;4.910;2022-08-01T09:29:02;49445.94;;;-146.94;57.30
56737;BME280;42618;51.226;4.910;2022-08-01T09:31:40;49420.00;;;-146.94;57.75
56737;BME280;42618;51.226;4.910;2022-08-01T09:34:14;49412.03;;;-146.94;56.61
56737;BME280;42618;51.226;4.910;2022-08-01T09:36:48;49366.19;;;-146.94;57.02
56737;BME280;42618;51.226;4.910;2022-08-01T09:39:27;49408.06;;;-146.94;53.98
56737;BME280;42618;51.226;4.910;2022-08-01T09:41:55;49396.09;;;-146.94;55.60
56737;BME280;42618;51.226;4.910;2022-08-01T09:44:42;49420.00;;;-146.94;53.97
56737;BME280;42618;51.226;4.910;2022-08-01T09:47:21;49418.00;;;-146.94;54.70
56737;BME280;42618;51.226;4.910;2022-08-01T09:49:57;49416.03;;;-146.94;54.99
56737;BME280;42618;51.226;4.910;2022-08-01T09:52:26;49420.00;;;-146.94;55.11
56737;BME280;42618;51.226;4.910;2022-08-01T09:55:05;49380.13;;;-146.94;54.01
56737;BME280;42618;51.226;4.910;2022-08-01T09:57:32;49388.13;;;-146.94;53.76
56737;BME280;42618;51.226;4.910;2022-08-01T10:00:00;49404.06;;;-146.94;51.38
56737;BME280;42618;51.226;4.910;2022-08-01T10:02:39;49380.13;;;-146.94;52.94
56737;BME280;42618;51.226;4.910;2022-08-01T10:05:09;49388.13;;;-146.94;50.34
56737;BME280;42618;51.226;4.910;2022-08-01T10:08:02;49366.19;;;-146.94;50.18
56737;BME280;42618;51.226;4.910;2022-08-01T10:10:33;49392.09;;;-146.94;51.06
56737;BME280;42618;51.226;4.910;2022-08-01T10:13:03;49424.00;;;-146.94;52.38
56737;BME280;42618;51.226;4.910;2022-08-01T10:15:31;49374.16;;;-146.94;52.90
56737;BME280;42618;51.226;4.910;2022-08-01T10:18:05;49427.97;;;-146.94;53.28
56737;BME280;42618;51.226;4.910;2022-08-01T10:20:42;49362.19;;;-146.94;51.62
56737;BME280;42618;51.226;4.910;2022-08-01T10:23:09;49394.09;;;-146.94;50.15
56737;BME280;42618;51.226;4.910;2022-08-01T10:25:37;49380.13;;;-146.94;47.63
56737;BME280;42618;51.226;4.910;2022-08-01T10:28:16;49384.13;;;-146.94;47.98
56737;BME280;42618;51.226;4.910;2022-08-01T10:30:50;49388.13;;;-146.94;48.17
56737;BME280;42618;51.226;4.910;2022-08-01T10:33:21;49416.03;;;-146.94;48.06
56737;BME280;42618;51.226;4.910;2022-08-01T10:36:08;49398.09;;;-146.94;45.96
56737;BME280;42618;51.226;4.910;2022-08-01T10:38:37;49412.03;;;-146.94;45.70
56737;BME280;42618;51.226;4.910;2022-08-01T10:41:05;49408.06;;;-146.94;45.88
56737;BME280;42618;51.226;4.910;2022-08-01T10:43:35;49378.16;;;-146.94;46.67
56737;BME280;42618;51.226;4.910;2022-08-01T10:46:03;49360.22;;;-146.94;48.14
56737;BME280;42618;51.226;4.910;2022-08-01T10:48:49;49410.03;;;-146.94;47.96
56737;BME280;42618;51.226;4.910;2022-08-01T10:51:18;49420.00;;;-146.94;46.70
56737;BME280;42618;51.226;4.910;2022-08-01T10:53:49;49394.09;;;-146.94;46.30
56737;BME280;42618;51.226;4.910;2022-08-01T10:56:21;49416.03;;;-146.94;47.09
56737;BME280;42618;51.226;4.910;2022-08-01T10:59:02;49392.09;;;-146.94;48.03
56737;BME280;42618;51.226;4.910;2022-08-01T11:01:36;49410.03;;;-146.94;48.56
56737;BME280;42618;51.226;4.910;2022-08-01T11:04:09;49352.22;;;-146.94;46.86
56737;BME280;42618;51.226;4.910;2022-08-01T11:06:49;49356.22;;;-146.94;43.42
56737;BME280;42618;51.226;4.910;2022-08-01T11:09:29;49376.16;;;-146.94;43.81
56737;BME280;42618;51.226;4.910;2022-08-01T11:12:07;49362.19;;;-146.94;44.05
56737;BME280;42618;51.226;4.910;2022-08-01T11:17:32;49352.22;;;-146.94;44.12
56737;BME280;42618;51.226;4.910;2022-08-01T11:28:26;49374.16;;;-146.94;45.60
56737;BME280;42618;51.226;4.910;2022-08-01T11:41:40;49348.25;;;-146.94;44.13
56737;BME280;42618;51.226;4.910;2022-08-01T11:44:11;49356.22;;;-146.94;42.89
56737;BME280;42618;51.226;4.910;2022-08-01T11:46:56;49372.16;;;-146.94;42.27
56737;BME280;42618;51.226;4.910;2022-08-01T11:52:13;49358.22;;;-146.94;42.66
56737;BME280;42618;51.226;4.910;2022-08-01T11:57:14;49388.13;;;-146.94;43.29
56737;BME280;42618;51.226;4.910;2022-08-01T11:59:52;49362.19;;;-146.94;42.95
56737;BME280;42618;51.226;4.910;2022-08-01T12:02:37;49362.19;;;-146.94;43.75
56737;BME280;42618;51.226;4.910;2022-08-01T12:05:09;49390.09;;;-146.94;42.76
56737;BME280;42618;51.226;4.910;2022-08-01T12:07:40;49332.31;;;-146.94;43.02
56737;BME280;42618;51.226;4.910;2022-08-01T12:10:10;49358.22;;;-146.94;44.46
56737;BME280;42618;51.226;4.910;2022-08-01T12:13:00;49372.16;;;-146.94;45.57
56737;BME280;42618;51.226;4.910;2022-08-01T12:15:32;49380.13;;;-146.94;45.47
56737;BME280;42618;51.226;4.910;2022-08-01T12:18:02;49366.19;;;-146.94;45.34
56737;BME280;42618;51.226;4.910;2022-08-01T12:20:36;49372.16;;;-146.94;43.82
56737;BME280;42618;51.226;4.910;2022-08-01T12:23:11;49326.31;;;-146.94;43.69
56737;BME280;42618;51.226;4.910;2022-08-01T12:25:39;49332.31;;;-146.94;42.22
56737;BME280;42618;51.226;4.910;2022-08-01T12:28:08;49330.31;;;-146.94;42.04
56737;BME280;42618;51.226;4.910;2022-08-01T12:30:36;49342.28;;;-146.94;43.19
56737;BME280;42618;51.226;4.910;2022-08-01T12:33:08;49356.22;;;-146.94;42.91
56737;BME280;42618;51.226;4.910;2022-08-01T12:35:36;49354.22;;;-146.94;43.16
56737;BME280;42618;51.226;4.910;2022-08-01T12:38:12;49356.22;;;-146.94;43.86
56737;BME280;42618;51.226;4.910;2022-08-01T12:40:41;49362.19;;;-146.94;42.97
56737;BME280;42618;51.226;4.910;2022-08-01T12:43:16;49358.22;;;-146.94;42.87
56737;BME280;42618;51.226;4.910;2022-08-01T12:45:55;49372.16;;;-146.94;42.70
56737;BME280;42618;51.226;4.910;2022-08-01T12:48:24;49414.03;;;-146.94;43.41
56737;BME280;42618;51.226;4.910;2022-08-01T12:50:51;49350.25;;;-146.94;43.20
56737;BME280;42618;51.226;4.910;2022-08-01T12:53:19;49376.16;;;-146.94;42.00
56737;BME280;42618;51.226;4.910;2022-08-01T12:55:52;49364.19;;;-146.94;41.70
56737;BME280;42618;51.226;4.910;2022-08-01T12:58:31;49354.22;;;-146.94;42.75
56737;BME280;42618;51.226;4.910;2022-08-01T13:01:06;49344.25;;;-146.94;43.38
56737;BME280;42618;51.226;4.910;2022-08-01T13:03:33;49376.16;;;-146.94;43.42
56737;BME280;42618;51.226;4.910;2022-08-01T13:06:00;49368.19;;;-146.94;42.69
56737;BME280;42618;51.226;4.910;2022-08-01T13:08:31;49348.25;;;-146.94;43.55
56737;BME280;42618;51.226;4.910;2022-08-01T13:11:04;49348.25;;;-146.94;40.94
56737;BME280;42618;51.226;4.910;2022-08-01T13:13:43;49334.28;;;-146.94;40.47
56737;BME280;42618;51.226;4.910;2022-08-01T13:16:10;49342.28;;;-146.94;40.84
56737;BME280;42618;51.226;4.910;2022-08-01T13:18:56;49344.25;;;-146.94;41.52
56737;BME280;42618;51.226;4.910;2022-08-01T13:21:28;49378.16;;;-146.94;41.84
56737;BME280;42618;51.226;4.910;2022-08-01T13:24:15;49292.44;;;-146.94;41.45
56737;BME280;42618;51.226;4.910;2022-08-01T13:29:19;49332.31;;;-146.94;39.44
56737;BME280;42618;51.226;4.910;2022-08-01T13:31:47;49314.34;;;-146.94;39.17
56737;BME280;42618;51.226;4.910;2022-08-01T13:34:14;49330.31;;;-146.94;38.31
56737;BME280;42618;51.226;4.910;2022-08-01T13:36:41;49338.28;;;-146.94;36.92